Time;durP1;ratioP1;P1;durP2;ratioP2;P2;SDS_P1;SDS_P2;PMS_P1;PMS_P2;Temp;Humidity;BMP_temperature;BMP_pressure;BME280_temperature;BME280_humidity;BME280_pressure;Samples;Min_cycle;Max_cycle;Signal;HPM_P1;HPM_P2
2021/03/29 00:01:52;;;;;;;5.68;3.40;;;;;;;8.87;75.94;101853.72;5065594;28;20579;-76
2021/03/29 00:04:18;;;;;;;6.85;3.58;;;;;;;8.89;76.22;101859.88;5032074;28;20041;-76
2021/03/29 00:06:47;;;;;;;4.78;2.40;;;;;;;8.93;75.44;101853.75;5066618;28;20032;-76
2021/03/29 00:09:18;;;;;;;6.40;2.78;;;;;;;8.89;75.77;101852.84;5049328;28;20047;-76
2021/03/29 00:11:44;;;;;;;8.20;2.70;;;;;;;9.00;75.02;101845.91;5004262;28;20048;-75
2021/03/29 00:14:12;;;;;;;6.18;2.60;;;;;;;9.00;74.80;101851.16;5033859;28;20040;-76
2021/03/29 00:16:39;;;;;;;5.68;2.63;;;;;;;9.02;74.79;101854.69;5049215;28;20041;-75
2021/03/29 00:19:07;;;;;;;4.90;2.60;;;;;;;9.02;75.16;101852.06;5027283;28;20168;-75
2021/03/29 00:21:35;;;;;;;5.97;2.65;;;;;;;8.99;74.79;101844.09;5051166;28;20041;-75
2021/03/29 00:24:03;;;;;;;7.30;2.65;;;;;;;9.03;74.96;101853.81;5046625;28;20040;-75
2021/03/29 00:26:30;;;;;;;7.75;2.80;;;;;;;9.06;74.30;101852.94;5032825;28;20230;-75
2021/03/29 00:28:56;;;;;;;5.75;3.15;;;;;;;9.05;74.60;101853.81;5050615;28;20040;-76
2021/03/29 00:31:22;;;;;;;6.60;2.70;;;;;;;9.15;74.12;101854.72;5025256;28;20052;-75
2021/03/29 00:33:52;;;;;;;8.88;2.45;;;;;;;9.09;74.41;101849.44;5010979;28;20033;-75
2021/03/29 00:36:21;;;;;;;5.65;2.83;;;;;;;9.03;74.79;101848.53;5034368;28;20593;-75
2021/03/29 00:38:47;;;;;;;5.90;2.70;;;;;;;9.04;74.58;101849.41;5032400;28;20048;-75
2021/03/29 00:41:15;;;;;;;5.20;2.60;;;;;;;9.00;74.80;101851.16;5032645;28;20054;-75
2021/03/29 00:43:45;;;;;;;6.32;2.50;;;;;;;9.03;74.56;101838.00;5016782;28;20108;-76
2021/03/29 00:46:13;;;;;;;6.53;2.40;;;;;;;9.02;74.61;101845.91;5031509;28;20033;-76
2021/03/29 00:48:39;;;;;;;9.25;2.92;;;;;;;8.95;75.11;101850.25;5046271;28;20047;-76
2021/03/29 00:51:23;;;;;;;6.80;2.75;;;;;;;8.92;75.03;101847.59;5019296;28;20371;-76
2021/03/29 00:53:52;;;;;;;6.68;2.78;;;;;;;8.93;75.04;101841.47;5032182;28;20044;-74
2021/03/29 00:56:18;;;;;;;6.57;2.28;;;;;;;8.93;75.08;101843.22;5030882;28;20540;-74
2021/03/29 00:58:46;;;;;;;10.65;2.90;;;;;;;9.00;74.35;101838.00;5044506;28;20045;-74
2021/03/29 01:01:17;;;;;;;10.90;3.20;;;;;;;9.03;74.50;101832.72;5060058;28;20045;-74
2021/03/29 01:03:46;;;;;;;9.15;2.60;;;;;;;8.98;75.06;101841.47;5045783;28;20168;-73
2021/03/29 01:06:15;;;;;;;7.82;2.53;;;;;;;8.97;74.74;101844.97;5045231;28;20123;-74
2021/03/29 01:08:45;;;;;;;5.60;3.05;;;;;;;8.94;75.01;101847.63;5023734;28;20044;-74
2021/03/29 01:11:14;;;;;;;11.13;2.90;;;;;;;8.95;74.88;101846.72;5027513;28;20052;-74
2021/03/29 01:13:45;;;;;;;5.43;2.92;;;;;;;9.03;74.27;101845.03;5061110;28;20730;-74
2021/03/29 01:16:14;;;;;;;11.30;3.35;;;;;;;8.99;74.37;101853.78;5016327;28;20037;-74
2021/03/29 01:18:42;;;;;;;6.07;3.20;;;;;;;9.05;74.43;101840.63;5047752;28;20032;-74
2021/03/29 01:21:39;;;;;;;7.80;3.40;;;;;;;9.06;73.90;101850.28;5039922;28;20052;-74
2021/03/29 01:24:52;;;;;;;4.20;2.47;;;;;;;9.12;73.48;101838.91;5034393;28;20106;-74
2021/03/29 01:27:21;;;;;;;5.70;2.65;;;;;;;9.07;74.11;101841.50;5045968;28;20047;-75
2021/03/29 01:29:50;;;;;;;6.35;3.33;;;;;;;9.03;74.25;101835.34;5047385;28;20055;-76
2021/03/29 01:32:20;;;;;;;4.10;2.63;;;;;;;9.04;74.08;101849.41;5045851;28;20425;-76
2021/03/29 01:34:47;;;;;;;5.63;2.42;;;;;;;9.04;74.50;101846.78;5027805;28;20040;-76
2021/03/29 01:37:14;;;;;;;4.88;2.38;;;;;;;9.07;73.91;101835.34;5047035;28;20500;-74
2021/03/29 01:39:41;;;;;;;4.70;2.63;;;;;;;9.07;73.93;101838.00;5030687;28;20068;-74
2021/03/29 01:42:08;;;;;;;6.50;2.80;;;;;;;9.03;74.34;101837.13;5047031;28;20082;-74
2021/03/29 01:44:34;;;;;;;9.60;2.33;;;;;;;8.98;74.82;101839.72;5029337;28;20032;-74
2021/03/29 01:47:02;;;;;;;5.70;2.67;;;;;;;8.95;74.69;101837.06;5025496;28;20043;-74
2021/03/29 01:49:28;;;;;;;7.85;2.75;;;;;;;8.94;74.42;101842.34;5022963;28;20044;-76
2021/03/29 01:51:55;;;;;;;6.35;2.47;;;;;;;8.91;74.77;101844.94;5048322;28;20044;-76
2021/03/29 01:54:22;;;;;;;6.78;2.72;;;;;;;8.85;75.21;101845.81;5044648;28;20049;-76
2021/03/29 01:56:48;;;;;;;7.47;2.60;;;;;;;8.87;74.79;101844.06;5045643;28;20044;-76
2021/03/29 01:59:18;;;;;;;3.95;2.53;;;;;;;8.78;75.14;101843.13;5059881;28;20040;-76
2021/03/29 02:01:44;;;;;;;5.35;2.42;;;;;;;8.72;75.62;101844.84;5037347;28;20044;-76
2021/03/29 02:04:11;;;;;;;5.85;2.63;;;;;;;8.78;75.38;101851.91;5063197;28;20045;-76
2021/03/29 02:06:37;;;;;;;6.43;3.30;;;;;;;8.77;75.68;101842.25;5045912;28;20055;-76
2021/03/29 02:09:08;;;;;;;5.18;2.55;;;;;;;8.74;75.61;101839.56;5046249;28;20077;-76
2021/03/29 02:11:35;;;;;;;7.05;2.80;;;;;;;8.73;75.56;101843.09;5032620;28;20529;-74
2021/03/29 02:14:02;;;;;;;7.97;2.53;;;;;;;8.73;75.76;101845.72;5017161;28;20040;-74
2021/03/29 02:16:29;;;;;;;5.60;2.63;;;;;;;8.73;75.65;101843.09;5045964;28;20661;-74
2021/03/29 02:19:03;;;;;;;4.53;2.55;;;;;;;8.66;76.13;101836.94;5040150;28;20036;-75
2021/03/29 02:21:33;;;;;;;4.60;2.35;;;;;;;8.70;75.91;101846.59;5029104;28;20049;-75
2021/03/29 02:24:00;;;;;;;5.30;2.35;;;;;;;8.68;75.94;101847.47;5051999;28;20055;-76
2021/03/29 02:26:28;;;;;;;5.93;2.45;;;;;;;8.72;75.46;101843.97;5038411;28;20102;-76
2021/03/29 02:28:56;;;;;;;8.63;2.90;;;;;;;8.70;75.64;101850.97;5040802;28;20107;-76
2021/03/29 02:31:24;;;;;;;4.22;2.38;;;;;;;8.64;76.09;101853.56;5026999;28;20044;-76
2021/03/29 02:33:51;;;;;;;7.60;2.63;;;;;;;8.65;75.97;101847.44;5050449;28;20098;-76
2021/03/29 02:36:20;;;;;;;5.35;2.38;;;;;;;8.65;76.05;101839.53;5029852;28;20040;-76
2021/03/29 02:38:48;;;;;;;5.65;2.65;;;;;;;8.63;76.11;101844.78;5030205;28;20094;-76
2021/03/29 02:41:15;;;;;;;6.95;3.00;;;;;;;8.63;75.88;101839.53;5034043;28;20413;-76
2021/03/29 02:43:45;;;;;;;5.32;2.85;;;;;;;8.67;75.84;101835.16;5037769;28;20472;-76
2021/03/29 02:46:11;;;;;;;6.43;2.67;;;;;;;8.67;75.93;101838.69;5048079;28;21545;-76
2021/03/29 02:48:40;;;;;;;5.68;2.60;;;;;;;8.67;76.06;101837.81;5019237;28;20057;-76
2021/03/29 02:51:12;;;;;;;4.53;2.33;;;;;;;8.53;77.02;101847.34;5045827;28;20516;-76
2021/03/29 02:53:43;;;;;;;3.90;2.70;;;;;;;8.55;76.54;101842.97;5016403;28;20037;-76
2021/03/29 02:56:15;;;;;;;5.88;2.80;;;;;;;8.50;77.18;101842.09;5029543;28;20068;-74
2021/03/29 02:58:44;;;;;;;8.55;3.65;;;;;;;8.56;76.68;101836.84;5046933;28;20040;-74
2021/03/29 03:01:13;;;;;;;7.00;2.67;;;;;;;8.54;77.11;101833.31;5049417;28;20102;-74
2021/03/29 03:03:41;;;;;;;11.68;3.22;;;;;;;8.52;77.46;101843.84;5048272;28;20040;-74
2021/03/29 03:06:08;;;;;;;6.05;2.65;;;;;;;8.55;77.11;101846.50;5026669;28;20033;-74
2021/03/29 03:08:35;;;;;;;5.43;2.22;;;;;;;8.54;77.29;101852.63;5032664;28;20040;-75
2021/03/29 03:11:03;;;;;;;6.57;2.42;;;;;;;8.53;77.42;101852.63;5049086;28;20032;-76
2021/03/29 03:13:30;;;;;;;7.47;3.27;;;;;;;8.64;76.65;101861.47;5048133;28;20052;-74
2021/03/29 03:15:56;;;;;;;6.35;2.80;;;;;;;8.54;77.77;101851.75;5029300;28;20040;-74
2021/03/29 03:18:22;;;;;;;6.53;3.15;;;;;;;8.51;77.54;101847.34;5046943;28;20944;-74
2021/03/29 03:20:48;;;;;;;6.40;2.63;;;;;;;8.57;77.79;101851.75;5011907;28;20067;-74
2021/03/29 03:23:17;;;;;;;6.53;2.70;;;;;;;8.53;77.83;101845.59;5034940;28;20522;-74
2021/03/29 03:25:46;;;;;;;6.60;2.60;;;;;;;8.52;78.20;101845.59;5045838;28;20040;-74
2021/03/29 03:28:15;;;;;;;4.53;2.40;;;;;;;8.55;77.94;101837.72;5029637;28;20076;-74
2021/03/29 03:30:43;;;;;;;4.97;2.55;;;;;;;8.52;78.22;101841.22;5047160;28;21147;-74
2021/03/29 03:33:11;;;;;;;4.85;2.33;;;;;;;8.50;78.47;101842.09;5068536;28;20047;-74
2021/03/29 03:35:40;;;;;;;5.33;2.80;;;;;;;8.55;78.22;101842.97;5050954;28;20029;-74
2021/03/29 03:38:15;;;;;;;4.60;2.58;;;;;;;8.53;78.31;101842.09;5034702;28;20037;-75
2021/03/29 03:40:44;;;;;;;6.22;2.67;;;;;;;8.54;78.40;101842.09;5035374;28;20041;-75
2021/03/29 03:43:12;;;;;;;6.50;2.80;;;;;;;8.44;79.09;101835.88;5034989;28;20494;-75
2021/03/29 03:45:44;;;;;;;5.20;2.65;;;;;;;8.51;78.76;101844.72;5036268;28;20056;-75
2021/03/29 03:48:12;;;;;;;7.33;2.57;;;;;;;8.52;78.73;101843.84;5051736;28;20123;-76
2021/03/29 03:50:44;;;;;;;7.60;3.92;;;;;;;8.50;78.88;101847.34;5050981;28;20573;-75
2021/03/29 03:53:10;;;;;;;7.38;3.13;;;;;;;8.43;79.23;101842.03;5032397;28;20052;-75
2021/03/29 03:55:37;;;;;;;4.82;2.72;;;;;;;8.43;78.92;101854.31;5023785;28;20049;-75
2021/03/29 03:58:03;;;;;;;6.10;3.17;;;;;;;8.33;80.18;101852.47;5049016;28;20044;-76
2021/03/29 04:00:30;;;;;;;4.70;2.28;;;;;;;8.24;80.60;101839.19;5038893;28;20086;-75
2021/03/29 04:02:56;;;;;;;7.68;3.22;;;;;;;8.22;80.55;101843.56;5050877;28;20098;-75
2021/03/29 04:05:22;;;;;;;6.40;2.97;;;;;;;8.19;80.64;101839.16;5033786;28;20045;-75
2021/03/29 04:08:10;;;;;;;6.50;2.97;;;;;;;8.16;80.92;101833.91;5065448;28;20130;-75
2021/03/29 04:10:51;;;;;;;4.43;2.97;;;;;;;8.18;80.99;101837.41;5031336;28;20041;-74
2021/03/29 04:13:25;;;;;;;7.20;2.65;;;;;;;8.17;81.03;101836.53;5021888;28;20048;-72
2021/03/29 04:15:52;;;;;;;;;;;;;;;8.18;81.01;101834.78;5048701;28;20037;-73
2021/03/29 04:18:19;;;;;;;4.40;2.50;;;;;;;8.16;81.18;101837.41;5032015;28;19920;-74
2021/03/29 04:20:45;;;;;;;4.33;2.23;;;;;;;8.20;81.10;101833.03;5030347;28;20048;-74
2021/03/29 04:23:12;;;;;;;8.40;3.00;;;;;;;8.25;81.01;101836.59;5030738;28;20064;-73
2021/03/29 04:25:39;;;;;;;5.57;3.07;;;;;;;8.24;80.99;101832.22;5052797;28;20044;-74
2021/03/29 04:28:06;;;;;;;5.00;2.58;;;;;;;8.24;80.97;101824.31;5046619;28;20650;-74
2021/03/29 04:30:32;;;;;;;5.63;2.90;;;;;;;8.25;80.74;101838.34;5045150;28;20036;-73
2021/03/29 04:32:58;;;;;;;12.20;4.03;;;;;;;8.31;80.13;101826.09;5048534;28;20037;-73
2021/03/29 04:35:24;;;;;;;9.27;3.10;;;;;;;8.37;79.78;101830.56;5062442;28;20054;-73
2021/03/29 04:37:52;;;;;;;6.93;2.60;;;;;;;8.43;79.31;101831.50;5064808;28;20047;-73
2021/03/29 04:40:20;;;;;;;7.88;3.13;;;;;;;8.49;79.09;101829.75;5036926;28;20049;-73
2021/03/29 04:42:47;;;;;;;8.70;4.55;;;;;;;8.49;79.01;101837.66;5057500;28;20685;-73
2021/03/29 04:45:14;;;;;;;4.90;2.70;;;;;;;8.51;78.89;101834.19;5043419;28;20113;-73
2021/03/29 04:47:40;;;;;;;6.47;2.88;;;;;;;8.56;78.70;101829.81;5056735;28;20036;-73
2021/03/29 04:50:08;;;;;;;4.53;2.88;;;;;;;8.54;78.98;101830.69;5025294;28;20079;-73
2021/03/29 04:52:34;;;;;;;4.93;2.75;;;;;;;8.56;78.30;101837.72;5054835;28;20405;-73
2021/03/29 04:55:01;;;;;;;6.03;3.00;;;;;;;8.68;77.71;101834.28;5046679;28;20054;-73
2021/03/29 04:57:27;;;;;;;7.53;2.73;;;;;;;8.67;77.60;101832.53;5027442;28;20040;-75
2021/03/29 04:59:53;;;;;;;6.63;2.90;;;;;;;8.65;77.91;101829.88;5049316;28;20032;-75
2021/03/29 05:02:28;;;;;;;7.55;2.75;;;;;;;8.68;77.77;101821.13;5030618;28;20079;-74
2021/03/29 05:04:54;;;;;;;9.15;2.90;;;;;;;8.69;77.73;101830.78;5012456;28;20718;-75
2021/03/29 05:07:21;;;;;;;5.30;2.40;;;;;;;8.72;77.24;101836.94;5013472;28;20052;-74
2021/03/29 05:09:48;;;;;;;4.73;2.40;;;;;;;8.69;77.71;101836.06;5034072;28;20037;-75
2021/03/29 05:12:19;;;;;;;12.70;3.08;;;;;;;8.66;77.71;101841.28;5060702;28;20520;-75
2021/03/29 05:14:48;;;;;;;7.72;3.20;;;;;;;8.70;77.44;101836.06;5013398;28;20048;-75
2021/03/29 05:17:14;;;;;;;4.68;2.38;;;;;;;8.74;77.27;101839.56;5035307;28;20597;-75
2021/03/29 05:19:40;;;;;;;5.07;2.75;;;;;;;8.76;77.71;101845.75;5048227;28;20063;-75
2021/03/29 05:22:08;;;;;;;5.32;2.60;;;;;;;8.80;77.27;101847.53;5043673;28;20098;-75
2021/03/29 05:24:35;;;;;;;8.95;3.05;;;;;;;8.90;76.48;101843.19;5042665;28;20041;-73
2021/03/29 05:27:02;;;;;;;6.82;2.38;;;;;;;8.96;76.59;101854.66;5025909;28;20049;-73
2021/03/29 05:29:39;;;;;;;7.90;3.72;;;;;;;8.95;76.85;101850.25;5047451;28;20059;-73
2021/03/29 05:32:14;;;;;;;5.53;3.50;;;;;;;8.95;77.28;101849.38;5065049;28;20044;-74
2021/03/29 05:34:40;;;;;;;7.10;2.50;;;;;;;8.96;77.81;101854.66;5065361;28;20049;-74
2021/03/29 05:37:07;;;;;;;10.38;2.70;;;;;;;8.92;79.20;101852.00;5034749;28;20048;-73
2021/03/29 05:39:33;;;;;;;6.82;3.00;;;;;;;8.87;80.03;101862.50;5030666;28;20582;-74
2021/03/29 05:41:59;;;;;;;6.63;2.80;;;;;;;8.79;81.42;101864.22;5031729;28;20036;-74
2021/03/29 05:44:26;;;;;;;5.28;2.55;;;;;;;8.78;81.81;101864.22;5032229;28;20102;-75
2021/03/29 05:46:52;;;;;;;5.90;2.97;;;;;;;8.76;82.25;101860.69;5040649;28;20490;-72
2021/03/29 05:49:19;;;;;;;6.63;3.10;;;;;;;8.66;83.52;101865.91;5030689;28;20048;-73
2021/03/29 05:51:45;;;;;;;8.73;3.13;;;;;;;8.63;83.62;101867.63;5048304;28;20094;-74
2021/03/29 05:54:11;;;;;;;5.30;2.67;;;;;;;8.64;83.80;101872.00;5011729;28;20048;-73
2021/03/29 05:56:41;;;;;;;7.35;3.70;;;;;;;8.58;84.92;101869.34;5011872;28;20099;-73
2021/03/29 05:59:13;;;;;;;9.35;3.53;;;;;;;8.56;85.49;101874.59;5015854;28;20095;-73
2021/03/29 06:01:39;;;;;;;5.47;2.60;;;;;;;8.56;85.61;101868.44;5061984;28;20032;-73
2021/03/29 06:04:06;;;;;;;6.85;2.95;;;;;;;8.52;86.79;101874.56;5031233;28;20048;-73
2021/03/29 06:06:32;;;;;;;11.52;3.58;;;;;;;8.49;87.43;101875.41;5064074;28;20040;-73
2021/03/29 06:08:58;;;;;;;6.50;3.35;;;;;;;8.40;88.62;101878.84;5062274;28;20075;-73
2021/03/29 06:11:39;;;;;;;9.77;3.25;;;;;;;8.34;90.49;101868.25;5044177;28;20123;-74
2021/03/29 06:14:21;;;;;;;8.52;3.50;;;;;;;8.34;91.52;101878.78;5022730;28;20270;-74
2021/03/29 06:17:09;;;;;;;9.88;3.58;;;;;;;8.38;92.06;101875.34;5040794;28;20086;-75
2021/03/29 06:19:49;;;;;;;8.13;3.50;;;;;;;8.42;93.13;101877.13;5046712;28;20041;-77
2021/03/29 06:22:35;;;;;;;6.03;3.40;;;;;;;8.44;93.60;101882.41;5034672;28;20051;-77
2021/03/29 06:25:14;;;;;;;10.32;5.25;;;;;;;8.57;93.51;101870.19;5025674;28;20040;-77
2021/03/29 06:27:46;;;;;;;8.23;4.15;;;;;;;8.61;93.88;101877.28;5041953;28;20128;-77
2021/03/29 06:30:16;;;;;;;9.02;4.05;;;;;;;8.63;93.72;101876.41;5038960;28;20070;-74
2021/03/29 06:33:08;;;;;;;7.20;3.97;;;;;;;8.60;93.65;101872.88;5056643;28;20036;-77
2021/03/29 06:35:54;;;;;;;12.97;4.03;;;;;;;8.57;93.83;101872.84;5046942;28;20047;-77
2021/03/29 06:38:24;;;;;;;7.43;4.23;;;;;;;8.61;93.04;101867.63;5042620;28;20083;-76
2021/03/29 06:40:50;;;;;;;8.15;3.78;;;;;;;8.62;93.17;101863.22;5033756;28;21966;-75
2021/03/29 06:43:35;;;;;;;7.38;4.25;;;;;;;8.76;93.37;101864.22;5064996;28;20121;-76
2021/03/29 06:46:06;;;;;;;7.13;3.63;;;;;;;8.88;92.81;101860.75;5023346;28;20033;-75
2021/03/29 06:48:35;;;;;;;7.65;3.75;;;;;;;9.02;91.77;101861.72;5008884;28;20068;-76
2021/03/29 06:51:07;;;;;;;7.35;4.72;;;;;;;9.10;90.05;101862.63;5012845;28;20087;-76
2021/03/29 06:53:35;;;;;;;10.98;4.32;;;;;;;9.13;89.69;101853.84;5029705;28;20068;-75
2021/03/29 06:56:21;;;;;;;8.05;3.90;;;;;;;9.23;88.56;101853.00;5020695;28;20041;-75
2021/03/29 06:58:48;;;;;;;9.18;4.53;;;;;;;9.21;88.19;101858.28;5049341;28;20112;-76
2021/03/29 07:01:20;;;;;;;9.30;4.55;;;;;;;9.23;87.78;101858.28;5029956;28;20524;-76
2021/03/29 07:03:47;;;;;;;8.38;3.95;;;;;;;9.27;87.72;101862.72;5019940;28;20035;-76
2021/03/29 07:06:16;;;;;;;14.00;4.63;;;;;;;9.36;84.86;101865.38;5026882;28;20048;-76
2021/03/29 07:08:45;;;;;;;9.82;3.67;;;;;;;9.52;84.55;101869.84;5036196;28;20036;-76
2021/03/29 07:11:17;;;;;;;5.88;3.22;;;;;;;9.68;84.41;101867.25;5050634;28;20037;-76
2021/03/29 07:13:44;;;;;;;10.02;4.00;;;;;;;9.83;83.21;101868.13;5035069;28;20044;-76
2021/03/29 07:16:11;;;;;;;7.85;4.25;;;;;;;9.97;81.90;101881.38;5032393;28;20043;-76
2021/03/29 07:18:39;;;;;;;9.75;4.72;;;;;;;10.00;79.96;101875.19;5047163;28;20036;-75
2021/03/29 07:21:08;;;;;;;8.73;3.90;;;;;;;10.00;78.71;101886.63;5044879;28;20028;-75
2021/03/29 07:23:37;;;;;;;7.50;3.97;;;;;;;10.03;77.19;101870.81;5051628;28;20131;-75
2021/03/29 07:26:19;;;;;;;7.30;3.75;;;;;;;10.10;75.04;101877.00;5043731;28;20040;-75
2021/03/29 07:28:46;;;;;;;10.02;4.45;;;;;;;10.17;75.00;101878.72;5029625;28;20045;-75
2021/03/29 07:31:12;;;;;;;8.50;3.85;;;;;;;10.20;75.01;101878.75;5042630;28;20037;-75
2021/03/29 07:33:51;;;;;;;6.70;3.50;;;;;;;10.47;75.83;101879.66;5011194;28;20528;-75
2021/03/29 07:36:50;;;;;;;8.80;4.03;;;;;;;10.59;73.13;101882.28;5030917;28;20093;-75
2021/03/29 07:39:25;;;;;;;8.20;4.10;;;;;;;10.68;72.43;101880.53;5036143;28;20068;-75
2021/03/29 07:42:23;;;;;;;7.90;4.40;;;;;;;10.66;71.61;101879.63;5036341;28;20044;-77
2021/03/29 07:44:52;;;;;;;8.57;4.10;;;;;;;10.68;71.42;101877.91;5066600;28;20127;-75
2021/03/29 07:47:38;;;;;;;9.68;5.38;;;;;;;10.67;71.52;101875.22;5045005;28;20042;-75
2021/03/29 07:50:05;;;;;;;11.60;4.10;;;;;;;10.77;71.00;101873.47;5059944;28;20067;-75
2021/03/29 07:52:59;;;;;;;8.80;4.05;;;;;;;10.77;70.03;101884.94;5066505;28;20040;-75
2021/03/29 07:55:26;;;;;;;6.43;3.72;;;;;;;10.79;71.07;101882.28;5023685;28;20037;-75
2021/03/29 07:57:55;;;;;;;8.75;3.65;;;;;;;10.82;71.92;101880.50;5048793;28;20121;-75
2021/03/29 08:00:24;;;;;;;9.25;4.22;;;;;;;10.85;71.92;101884.91;5061291;28;20068;-74
2021/03/29 08:02:58;;;;;;;7.75;4.00;;;;;;;10.93;71.26;101898.97;5046017;28;20726;-74
2021/03/29 08:05:34;;;;;;;5.18;3.50;;;;;;;10.85;70.90;101893.72;5048484;28;20535;-74
2021/03/29 08:08:03;;;;;;;8.63;4.05;;;;;;;10.83;71.14;101895.47;5053861;28;20036;-74
2021/03/29 08:10:54;;;;;;;8.85;4.68;;;;;;;10.85;70.19;101892.84;5047778;28;20494;-74
2021/03/29 08:13:39;;;;;;;8.43;4.18;;;;;;;10.91;71.32;101885.75;5062745;28;20563;-74
2021/03/29 08:16:11;;;;;;;7.05;3.60;;;;;;;10.93;70.59;101881.38;5025143;28;20039;-74
2021/03/29 08:19:09;;;;;;;7.32;3.80;;;;;;;11.03;69.78;101879.59;5065233;28;20035;-74
2021/03/29 08:21:58;;;;;;;11.02;3.88;;;;;;;11.15;69.86;101865.44;5030088;28;20033;-74
2021/03/29 08:24:46;;;;;;;8.18;3.65;;;;;;;11.16;68.94;101870.69;5049635;28;20048;-74
2021/03/29 08:27:19;;;;;;;7.13;3.75;;;;;;;11.21;66.89;101870.69;5049706;28;20390;-73
2021/03/29 08:29:50;;;;;;;6.75;3.78;;;;;;;11.31;66.49;101874.19;5037658;28;20040;-74
2021/03/29 08:32:29;;;;;;;9.10;5.25;;;;;;;11.33;66.24;101872.41;5033827;28;20164;-74
2021/03/29 08:35:18;;;;;;;5.82;4.10;;;;;;;11.39;67.38;101867.09;5043898;28;20512;-74
2021/03/29 08:37:58;;;;;;;8.60;4.00;;;;;;;11.58;65.88;101858.16;5070019;22;21079;-92
2021/03/29 08:40:32;;;;;;;8.75;4.40;;;;;;;11.66;66.08;101866.94;5041949;28;20073;-92
2021/03/29 08:43:06;;;;;;;;;;;;;;;11.66;65.27;101866.06;5043541;28;20025;-91
2021/03/29 08:45:38;;;;;;;6.72;3.67;;;;;;;11.73;65.74;101873.09;5019768;28;19917;-93
2021/03/29 08:48:05;;;;;;;8.35;3.70;;;;;;;11.84;65.42;101876.56;5037867;28;20056;-92
2021/03/29 08:50:38;;;;;;;10.45;4.45;;;;;;;11.88;64.35;101885.41;5031490;28;20201;-91
2021/03/29 08:53:07;;;;;;;5.43;3.10;;;;;;;11.98;63.50;101882.66;4992750;28;20070;-92
2021/03/29 08:55:36;;;;;;;7.72;3.25;;;;;;;12.08;62.76;101880.84;5014900;28;20060;-92
2021/03/29 08:58:03;;;;;;;6.43;3.42;;;;;;;12.21;62.84;101871.03;5010416;28;20037;-93
2021/03/29 09:00:34;;;;;;;9.10;3.15;;;;;;;12.28;62.27;101870.09;5001729;28;20042;-92
2021/03/29 09:03:01;;;;;;;7.18;3.30;;;;;;;12.30;61.71;101873.63;4998032;28;20037;-93
2021/03/29 09:05:28;;;;;;;7.45;3.20;;;;;;;12.52;60.91;101869.88;5013505;28;20048;-92
2021/03/29 09:07:55;;;;;;;8.52;2.55;;;;;;;12.66;60.11;101870.63;4997250;28;20048;-92
2021/03/29 09:10:21;;;;;;;8.32;3.58;;;;;;;12.95;59.41;101870.34;4993637;28;20122;-92
2021/03/29 09:13:05;;;;;;;8.88;3.53;;;;;;;13.03;58.71;101872.00;5008734;28;20041;-92
2021/03/29 09:15:36;;;;;;;6.85;3.65;;;;;;;13.30;58.62;101874.38;5023746;28;20040;-92
2021/03/29 09:18:06;;;;;;;8.73;3.28;;;;;;;13.48;56.61;101868.84;4994906;28;20310;-92
2021/03/29 09:20:41;;;;;;;6.20;3.30;;;;;;;13.61;57.42;101873.97;4998482;28;21019;-91
2021/03/29 09:23:12;;;;;;;8.20;2.92;;;;;;;13.63;56.71;101866.88;4997637;28;20081;-92
2021/03/29 09:25:46;;;;;;;6.65;2.95;;;;;;;14.03;55.67;101878.66;5014052;28;20052;-93
2021/03/29 09:31:15;;;;;;;6.00;2.72;;;;;;;14.22;54.78;101873.94;5014430;28;19967;-92
2021/03/29 09:33:45;;;;;;;8.43;3.30;;;;;;;14.77;55.47;101874.78;4987569;28;20033;-93
2021/03/29 09:36:15;;;;;;;5.30;2.83;;;;;;;15.10;53.36;101868.81;5031842;28;20025;-92
2021/03/29 09:38:53;;;;;;;6.00;3.35;;;;;;;15.03;54.36;101859.19;5014224;28;20025;-93
2021/03/29 09:41:27;;;;;;;6.10;3.17;;;;;;;15.21;52.87;101877.47;5022078;28;20117;-92
2021/03/29 09:44:07;;;;;;;5.32;2.72;;;;;;;15.36;53.63;101870.06;5004291;28;20061;-91
2021/03/29 09:46:35;;;;;;;3.58;2.33;;;;;;;15.24;52.63;101870.34;4991918;28;20053;-93
2021/03/29 09:49:10;;;;;;;6.75;2.97;;;;;;;14.97;51.80;101872.66;4999727;28;20101;-93
2021/03/29 09:51:38;;;;;;;8.00;3.15;;;;;;;15.14;52.15;101873.19;5008714;28;20038;-92
2021/03/29 09:54:32;;;;;;;5.90;3.00;;;;;;;15.31;51.15;101874.66;5026205;28;20113;-92
2021/03/29 09:57:11;;;;;;;6.60;3.53;;;;;;;15.41;50.54;101886.84;5001235;28;20051;-93
2021/03/29 09:59:42;;;;;;;7.82;3.15;;;;;;;15.17;52.21;101880.25;5006988;28;20049;-92
2021/03/29 10:02:39;;;;;;;9.60;3.30;;;;;;;14.92;52.72;101887.81;5005905;28;20043;-91
2021/03/29 10:05:11;;;;;;;8.15;2.83;;;;;;;14.92;52.67;101880.72;4985386;28;20058;-93
2021/03/29 10:08:05;;;;;;;7.88;3.15;;;;;;;15.31;51.38;101885.28;5010121;28;20065;-92
2021/03/29 10:10:34;;;;;;;9.73;3.63;;;;;;;16.14;49.72;101890.53;5009796;28;20145;-93
2021/03/29 10:13:14;;;;;;;7.18;3.38;;;;;;;16.19;49.24;101883.31;4993195;28;20109;-92
2021/03/29 10:15:42;;;;;;;7.40;3.47;;;;;;;16.81;48.46;101890.66;4994656;28;20046;-92
2021/03/29 10:18:15;;;;;;;5.88;3.30;;;;;;;16.48;48.66;101884.38;5011196;28;20359;-93
2021/03/29 10:20:44;;;;;;;6.03;2.95;;;;;;;16.46;49.01;101897.75;5003241;28;20052;-93
2021/03/29 10:23:27;;;;;;;10.18;3.60;;;;;;;16.79;49.12;101889.84;5027093;28;20107;-93
2021/03/29 10:26:21;;;;;;;6.88;3.15;;;;;;;16.72;48.89;101883.78;5009593;28;20092;-92
2021/03/29 10:28:59;;;;;;;10.67;3.93;;;;;;;16.41;49.62;101894.34;4989372;28;20049;-93
2021/03/29 10:31:37;;;;;;;7.18;3.40;;;;;;;16.28;50.77;101888.44;5023953;28;20069;-92
2021/03/29 10:34:06;;;;;;;8.30;3.78;;;;;;;16.18;49.69;101883.38;5011808;28;20049;-93
2021/03/29 10:36:33;;;;;;;9.45;3.38;;;;;;;15.66;50.86;101882.78;5006848;28;20273;-92
2021/03/29 10:39:21;;;;;;;;;;;;;;;;;;;;;
2021/03/29 10:42:32;;;;;;;;;;;;;;;;;;;;;
2021/03/29 10:46:05;;;;;;;7.93;3.35;;;;;;;14.95;58.37;101887.75;5035758;28;20047;-93
2021/03/29 10:48:51;;;;;;;;;;;;;;;;;;;;;
2021/03/29 10:51:30;;;;;;;7.70;3.33;;;;;;;14.71;58.90;101894.41;5016867;28;20037;-92
2021/03/29 10:54:04;;;;;;;6.47;5.13;;;;;;;14.64;59.10;101888.34;5011320;28;20050;-93
2021/03/29 10:56:30;;;;;;;8.18;4.10;;;;;;;14.76;58.71;101895.19;4993571;28;20053;-92
2021/03/29 10:58:59;;;;;;;5.90;3.80;;;;;;;14.91;58.05;101891.38;4988951;28;20060;-93
2021/03/29 11:01:26;;;;;;;8.10;3.47;;;;;;;14.89;58.06;101883.44;4994154;28;20050;-91
2021/03/29 11:03:52;;;;;;;9.65;3.88;;;;;;;14.98;57.53;101884.19;4996631;28;20045;-92
2021/03/29 11:06:18;;;;;;;7.88;3.00;;;;;;;15.17;57.27;101882.91;4999167;28;20033;-92
2021/03/29 11:08:45;;;;;;;9.10;3.67;;;;;;;15.25;54.77;101885.41;5007201;28;20049;-93
2021/03/29 11:11:11;;;;;;;5.18;2.67;;;;;;;15.59;54.50;101874.91;5015936;28;20073;-92
2021/03/29 11:13:37;;;;;;;6.32;3.10;;;;;;;15.94;54.50;101883.03;4995666;28;20049;-92
2021/03/29 11:16:08;;;;;;;8.60;3.47;;;;;;;15.96;52.12;101885.66;4989143;28;20017;-92
2021/03/29 11:18:35;;;;;;;6.45;2.90;;;;;;;16.39;51.22;101888.16;4995223;28;20125;-94
2021/03/29 11:21:06;;;;;;;8.25;3.42;;;;;;;16.49;50.67;101886.16;5030188;28;20060;-93
2021/03/29 11:23:33;;;;;;;5.68;3.40;;;;;;;16.36;49.65;101885.56;5004880;28;20123;-91
2021/03/29 11:26:01;;;;;;;15.13;8.30;;;;;;;16.27;51.31;101885.81;5024302;28;20052;-93
2021/03/29 11:28:30;;;;;;;9.70;7.20;;;;;;;15.80;52.81;101878.91;5030631;28;20037;-93
2021/03/29 11:30:57;;;;;;;8.90;4.47;;;;;;;15.41;52.41;101886.84;4996550;28;20757;-92
2021/03/29 11:33:28;;;;;;;6.25;3.13;;;;;;;15.40;53.36;101893.97;5020261;28;20105;-92
2021/03/29 11:35:54;;;;;;;7.93;3.50;;;;;;;15.43;53.18;101893.00;5019614;28;20117;-92
2021/03/29 11:38:21;;;;;;;8.77;3.08;;;;;;;15.62;53.88;101890.84;4994573;28;20049;-92
2021/03/29 11:40:50;;;;;;;8.57;3.22;;;;;;;15.80;52.58;101885.13;5009405;28;20042;-92
2021/03/29 11:43:17;;;;;;;10.75;3.58;;;;;;;15.80;52.38;101881.56;5004182;28;20097;-92
2021/03/29 11:45:44;;;;;;;9.45;3.22;;;;;;;15.76;51.76;101883.44;4992743;28;20066;-91
2021/03/29 11:48:16;;;;;;;4.18;2.53;;;;;;;16.58;53.09;101880.59;5006689;28;20069;-91
2021/03/29 11:50:42;;;;;;;6.13;3.00;;;;;;;16.59;49.67;101885.00;5035120;28;20144;-92
2021/03/29 11:53:13;;;;;;;6.28;3.10;;;;;;;16.52;50.85;101888.72;5010804;28;20041;-91
2021/03/29 11:55:40;;;;;;;7.20;3.10;;;;;;;16.31;50.79;101888.38;5004039;28;20037;-91
2021/03/29 11:58:09;;;;;;;7.05;3.20;;;;;;;16.53;50.38;101886.03;5025792;28;20046;-92